Pueblo Of Acoma, NM (87034)

3:48 AM MDT on August 28, 2014 (GMT -0600)
Old Laguna Sub | Change Station
CLOSE
Current Station
Personal Weather Station
Location: New Mexico, NM
Elevation: 5820 ft
Nearby Weather Stations

Elev 5820 ft 35.05 °N, 107.37 °W | Updated 1 minute ago

Partly Cloudy
Partly Cloudy
58.4 °F
Feels Like 58.4 °F
N
7.8
Wind Variable Wind from SW
Gusts 9.1 mph

Today
High -- | Low -- °F
--% Chance of Precip.
Yesterday
High -- | Low -- °F
Precip. -- in
6:40 AM 7:42 PM
Waxing Crescent, 7% visible
Pressure 30.25 in
Visibility 10.0 miles
Clouds Scattered Clouds 11000 ft
Dew Point 44 °F
Humidity 58%
Rainfall 0.00 in
Snow Depth Not available.
UV 0 out of 12
Pollen 4.30 out of 12
Air Quality Not available.
Flu Activity Not available.
METAR KAEG 280935Z AUTO 29007KT 10SM SCT110 14/07 A3025 RMK AO2 T01410071

More Conditions Fewer Conditions

Pressure 30.25 in
Visibility 10.0 miles
Clouds Scattered Clouds 11000 ft
Dew Point 44 °F
Humidity 58%
Rainfall 0.00 in
Snow Depth Not available.
UV 0 out of 12
Pollen 4.30 out of 12
Air Quality Not available.
Flu Activity Not available.
METAR KAEG 280935Z AUTO 29007KT 10SM SCT110 14/07 A3025 RMK AO2 T01410071

More Conditions Fewer Conditions

10-Day Weather Forecast

Almanac

Astronomy

Aug. 28, 2014 Rise Set
Actual Time 6:40 AM MDT 7:42 PM MDT
Civil Twilight 6:14 AM MDT 8:08 PM MDT
Nautical Twilight 5:43 AM MDT 8:39 PM MDT
Astronomical Twilight 5:11 AM MDT 9:11 PM MDT
Moon 9:27 AM MDT 9:17 PM MDT
Length of Visible Light 13h 54m
Length of Day
13h 02m
Tomorrow will be 2m 5s shorter.
Waxing Crescent, 7% of the Moon is Illuminated
Today
Waxing Crescent
Sep 2
First Quarter
Sep 8
Full
Sep 15
Last Quarter
Sep 24
New

Today's Extremes

State Highs State Lows

Community

WunderPhotos

Upload Photos

1,747,918 photos uploaded!

Nearby

Snow Depth

Station Depth Elevation
Rice Park 0 in 8460 ft
Quemazon 2 in 9500 ft
Santa Fe 2 in 11445 ft
Bateman 0 in 9300 ft
Wesner Springs 1 in 11120 ft

Earthquake Activity

City Distance Mag. Time & Date
No recent earthquake activity has been reported nearby.
Minimum magnitude displayed is 2.5.

Coastal Water Temperatures

Place Temperature
No Stations Reporting

Nearby Weather Stations